createdAt,value
2022-09-20T00:01:23.382Z,102017.03
2022-09-20T00:03:54.686Z,102018.13
2022-09-20T00:06:26.093Z,102015.31
2022-09-20T00:08:53.673Z,102021.63
2022-09-20T00:11:25.680Z,102013.63
2022-09-20T00:13:56.163Z,102016.22
2022-09-20T00:16:35.417Z,102022.31
2022-09-20T00:19:04.396Z,102022.81
2022-09-20T00:21:33.479Z,102019.47
2022-09-20T00:24:01.730Z,102017.22
2022-09-20T00:26:29.424Z,102015.66
2022-09-20T00:28:58.166Z,102020.44
2022-09-20T00:31:25.011Z,102021.84
2022-09-20T00:34:13.761Z,102025.81
2022-09-20T00:36:41.191Z,102027.06
2022-09-20T00:39:10.760Z,102037.09
2022-09-20T00:41:37.833Z,102043.22
2022-09-20T00:44:40.992Z,102038.91
2022-09-20T00:47:30.608Z,102037.00
2022-09-20T00:50:25.982Z,102034.59
2022-09-20T00:53:00.835Z,102040.69
2022-09-20T00:55:29.092Z,102044.16
2022-09-20T00:57:56.190Z,102043.00
2022-09-20T01:00:23.715Z,102036.75
2022-09-20T01:02:57.594Z,102044.66
2022-09-20T01:05:25.425Z,102045.38
2022-09-20T01:07:52.788Z,102042.47
2022-09-20T01:10:19.596Z,102043.41
2022-09-20T01:12:48.264Z,102046.59
2022-09-20T01:15:15.805Z,102038.81
2022-09-20T01:17:47.118Z,102036.84
2022-09-20T01:20:28.579Z,102038.31
2022-09-20T01:23:14.184Z,102035.25
2022-09-20T01:25:59.767Z,102032.50
2022-09-20T01:28:27.578Z,102032.91
2022-09-20T01:31:06.381Z,102038.09
2022-09-20T01:33:46.969Z,102026.13
2022-09-20T01:36:24.903Z,102025.75
2022-09-20T01:39:10.398Z,102023.63
2022-09-20T01:41:56.536Z,102023.66
2022-09-20T01:44:35.917Z,102018.09
2022-09-20T01:47:11.388Z,102018.66
2022-09-20T01:49:57.348Z,102017.25
2022-09-20T01:52:36.184Z,102017.97
2022-09-20T01:55:50.588Z,102016.66
2022-09-20T01:58:42.130Z,102012.31
2022-09-20T02:01:27.164Z,102009.81
2022-09-20T02:04:30.708Z,102021.03
2022-09-20T02:07:25.848Z,102023.63
2022-09-20T02:09:56.934Z,102018.91
2022-09-20T02:12:52.112Z,102017.41
2022-09-20T02:15:52.525Z,102021.09
2022-09-20T02:18:44.096Z,102027.28
2022-09-20T02:21:42.445Z,102018.03
2022-09-20T02:24:12.286Z,102025.63
2022-09-20T02:26:48.443Z,102018.22
2022-09-20T02:29:33.763Z,102017.31
2022-09-20T02:32:12.709Z,102022.31
2022-09-20T02:34:53.831Z,102024.28
2022-09-20T02:37:59.291Z,102016.53
2022-09-20T02:41:05.320Z,102019.41
2022-09-20T02:44:09.584Z,102025.72
2022-09-20T02:47:21.033Z,102021.84
2022-09-20T02:50:19.978Z,102024.22
2022-09-20T02:53:08.536Z,102033.00
2022-09-20T02:55:52.033Z,102023.44
2022-09-20T02:58:30.867Z,102031.53
2022-09-20T03:01:13.232Z,102037.31
2022-09-20T03:04:10.375Z,102039.13
2022-09-20T03:07:08.768Z,102038.06
2022-09-20T03:09:47.846Z,102048.75
2022-09-20T03:12:17.547Z,102039.19
2022-09-20T03:15:11.871Z,102042.22
2022-09-20T03:18:15.931Z,102040.97
2022-09-20T03:20:48.586Z,102038.81
2022-09-20T03:23:35.858Z,102039.44
2022-09-20T03:26:29.957Z,102039.75
2022-09-20T03:29:04.175Z,102036.22
2022-09-20T03:31:37.114Z,102041.66
2022-09-20T03:34:07.511Z,102043.91
2022-09-20T03:36:49.456Z,102035.59
2022-09-20T03:39:36.567Z,102040.19
2022-09-20T03:42:24.628Z,102036.56
2022-09-20T03:45:06.606Z,102043.53
2022-09-20T03:47:52.145Z,102050.59
2022-09-20T03:51:00.799Z,102039.25
2022-09-20T03:53:46.388Z,102041.50
2022-09-20T03:56:55.828Z,102045.97
2022-09-20T03:59:31.787Z,102045.50
2022-09-20T04:02:21.888Z,102046.38
2022-09-20T04:04:56.959Z,102042.28
2022-09-20T04:07:47.024Z,102043.91
2022-09-20T04:10:25.763Z,102048.66
2022-09-20T04:13:17.312Z,102054.06
2022-09-20T04:15:44.400Z,102046.28
2022-09-20T04:18:19.868Z,102048.34
2022-09-20T04:20:52.504Z,102044.16
2022-09-20T04:23:53.507Z,102045.72
2022-09-20T04:26:26.538Z,102049.63
2022-09-20T04:29:35.448Z,102048.63
2022-09-20T04:32:22.010Z,102056.03
2022-09-20T04:35:23.112Z,102055.41
2022-09-20T04:37:52.029Z,102059.66
2022-09-20T04:40:41.057Z,102062.75
2022-09-20T04:43:37.357Z,102062.75
2022-09-20T04:46:23.129Z,102063.97
2022-09-20T04:49:02.595Z,102060.88
2022-09-20T04:51:44.397Z,102059.03
2022-09-20T04:54:42.186Z,102060.59
2022-09-20T04:57:27.784Z,102062.13
2022-09-20T05:00:12.877Z,102070.38
2022-09-20T05:02:42.849Z,102077.59
2022-09-20T05:05:41.208Z,102076.75
2022-09-20T05:08:17.233Z,102078.28
2022-09-20T05:11:19.563Z,102087.06
2022-09-20T05:14:08.222Z,102074.66
2022-09-20T05:16:58.310Z,102075.97
2022-09-20T05:19:55.745Z,102082.06
2022-09-20T05:23:07.831Z,102086.22
2022-09-20T05:25:46.483Z,102090.69
2022-09-20T05:28:29.329Z,102092.41
2022-09-20T05:31:01.471Z,102091.06
2022-09-20T05:33:46.741Z,102095.56
2022-09-20T05:36:34.572Z,102096.75
2022-09-20T05:39:24.762Z,102097.63
2022-09-20T05:42:07.217Z,102098.03
2022-09-20T05:45:04.582Z,102097.19
2022-09-20T05:48:02.289Z,102094.34
2022-09-20T05:50:38.088Z,102101.16
2022-09-20T05:53:26.519Z,102104.69
2022-09-20T05:56:19.117Z,102100.06
2022-09-20T05:59:09.725Z,102102.22
2022-09-20T06:01:51.011Z,102112.31
2022-09-20T06:04:26.933Z,102117.56
2022-09-20T06:07:20.062Z,102122.69
2022-09-20T06:10:29.133Z,102117.28
2022-09-20T06:13:23.325Z,102121.41
2022-09-20T06:16:02.690Z,102124.84
2022-09-20T06:19:05.065Z,102129.81
2022-09-20T06:22:01.923Z,102136.91
2022-09-20T06:24:56.332Z,102126.41
2022-09-20T06:27:32.453Z,102128.06
2022-09-20T06:30:05.829Z,102131.84
2022-09-20T06:32:34.733Z,102131.41
2022-09-20T06:35:03.062Z,102128.03
2022-09-20T06:38:08.206Z,102128.78
2022-09-20T06:41:00.137Z,102135.69
2022-09-20T06:43:27.861Z,102135.81
2022-09-20T06:45:54.719Z,102143.34
2022-09-20T06:48:21.650Z,102134.03
2022-09-20T06:50:49.894Z,102140.78
2022-09-20T06:53:19.098Z,102145.72
2022-09-20T06:55:47.020Z,102148.78
2022-09-20T06:58:13.873Z,102146.19
2022-09-20T07:00:41.078Z,102138.56
2022-09-20T07:03:08.483Z,102141.00
2022-09-20T07:05:36.335Z,102141.09
2022-09-20T07:08:03.456Z,102147.88
2022-09-20T07:10:30.922Z,102146.41
2022-09-20T07:12:59.466Z,102145.97
2022-09-20T07:15:28.275Z,102151.75
2022-09-20T07:17:55.730Z,102154.03
2022-09-20T07:20:23.291Z,102152.72
2022-09-20T07:22:50.986Z,102158.09
2022-09-20T07:25:18.289Z,102162.19
2022-09-20T07:27:46.490Z,102159.94
2022-09-20T07:30:14.819Z,102163.84
2022-09-20T07:32:42.020Z,102164.06
2022-09-20T07:35:10.154Z,102168.94
2022-09-20T07:37:37.609Z,102168.72
2022-09-20T07:40:05.732Z,102170.53
2022-09-20T07:42:33.218Z,102167.50
2022-09-20T07:45:02.173Z,102164.81
2022-09-20T07:47:35.287Z,102165.84
2022-09-20T07:50:02.877Z,102172.91
2022-09-20T07:52:30.105Z,102167.66
2022-09-20T07:54:56.982Z,102174.28
2022-09-20T07:57:23.929Z,102177.16
2022-09-20T07:59:50.740Z,102177.69
2022-09-20T08:02:17.759Z,102180.59
2022-09-20T08:04:44.636Z,102179.75
2022-09-20T08:07:12.724Z,102182.03
2022-09-20T08:09:39.587Z,102191.13
2022-09-20T08:14:55.581Z,102193.75
2022-09-20T08:17:22.725Z,102203.25
2022-09-20T08:19:49.898Z,102202.88
2022-09-20T08:22:16.725Z,102211.69
2022-09-20T08:24:44.196Z,102214.53
2022-09-20T08:27:11.096Z,102208.63
2022-09-20T08:29:38.583Z,102223.13
2022-09-20T08:32:05.469Z,102235.53
2022-09-20T08:34:32.319Z,102226.63
2022-09-20T08:36:59.527Z,102228.41
2022-09-20T08:42:33.351Z,102231.75
2022-09-20T08:45:22.190Z,102222.38
2022-09-20T08:47:58.929Z,102232.09
2022-09-20T08:50:26.910Z,102229.81
2022-09-20T08:53:00.647Z,102243.41
2022-09-20T08:55:36.453Z,102235.41
2022-09-20T08:58:08.220Z,102241.25
2022-09-20T09:00:37.081Z,102241.06
2022-09-20T09:03:07.398Z,102239.56
2022-09-20T09:05:37.619Z,102239.66
2022-09-20T09:08:31.032Z,102233.63
2022-09-20T09:11:02.496Z,102245.84
2022-09-20T09:13:39.046Z,102241.78
2022-09-20T09:16:22.505Z,102241.78
2022-09-20T09:18:53.162Z,102245.91
2022-09-20T09:21:25.878Z,102239.38
2022-09-20T09:24:13.814Z,102234.78
2022-09-20T09:26:43.396Z,102233.72
2022-09-20T09:29:10.256Z,102235.84
2022-09-20T09:31:39.652Z,102234.38
2022-09-20T09:34:29.984Z,102231.59
2022-09-20T09:36:57.812Z,102238.06
2022-09-20T09:39:31.768Z,102232.31
2022-09-20T09:42:01.207Z,102233.03
2022-09-20T09:44:33.233Z,102234.97
2022-09-20T09:47:00.544Z,102237.88
2022-09-20T09:49:36.260Z,102234.31
2022-09-20T09:52:15.402Z,102229.75
2022-09-20T09:54:46.857Z,102242.44
2022-09-20T09:57:25.732Z,102234.00
2022-09-20T10:00:04.150Z,102239.47
2022-09-20T10:02:48.151Z,102236.13
2022-09-20T10:05:27.129Z,102237.44
2022-09-20T10:08:16.802Z,102236.38
2022-09-20T10:11:07.752Z,102236.53
2022-09-20T10:13:53.112Z,102238.75
2022-09-20T10:16:21.010Z,102236.41
2022-09-20T10:19:03.283Z,102237.25
2022-09-20T10:21:56.232Z,102243.66
2022-09-20T10:24:34.835Z,102235.47
2022-09-20T10:27:26.132Z,102238.75
2022-09-20T10:30:03.976Z,102245.16
2022-09-20T10:32:31.564Z,102242.50
2022-09-20T10:35:19.727Z,102237.13
2022-09-20T10:38:08.107Z,102229.09
2022-09-20T10:41:02.490Z,102237.69
2022-09-20T10:43:51.097Z,102244.22
2022-09-20T10:46:49.973Z,102244.44
2022-09-20T10:49:36.685Z,102247.13
2022-09-20T10:52:26.607Z,102238.78
2022-09-20T10:55:06.344Z,102244.59
2022-09-20T10:57:48.641Z,102241.59
2022-09-20T11:00:25.000Z,102247.44
2022-09-20T11:03:12.146Z,102243.09
2022-09-20T11:05:53.975Z,102245.34
2022-09-20T11:08:27.034Z,102245.41
2022-09-20T11:10:58.661Z,102235.16
2022-09-20T11:14:03.384Z,102239.19
2022-09-20T11:16:43.320Z,102235.78
2022-09-20T11:19:19.315Z,102239.94
2022-09-20T11:22:06.115Z,102252.94
2022-09-20T11:24:48.215Z,102258.19
2022-09-20T11:27:29.687Z,102257.91
2022-09-20T11:30:20.830Z,102258.03
2022-09-20T11:32:58.008Z,102265.97
2022-09-20T11:35:36.833Z,102264.50
2022-09-20T11:38:26.709Z,102270.72
2022-09-20T11:41:15.706Z,102251.84
2022-09-20T11:43:44.501Z,102255.50
2022-09-20T11:46:18.700Z,102259.88
2022-09-20T11:48:52.896Z,102249.22
2022-09-20T11:51:34.938Z,102249.41
2022-09-20T11:54:04.887Z,102251.28
2022-09-20T11:56:34.497Z,102258.50
2022-09-20T11:59:03.846Z,102259.91
2022-09-20T12:01:40.623Z,102258.91
2022-09-20T12:07:09.717Z,102260.47
2022-09-20T12:09:42.826Z,102274.41
2022-09-20T12:12:28.327Z,102271.28
2022-09-20T12:14:57.382Z,102275.09
2022-09-20T12:17:45.903Z,102274.47
2022-09-20T12:20:34.704Z,102274.81
2022-09-20T12:23:38.802Z,102269.16
2022-09-20T12:26:20.349Z,102270.22
2022-09-20T12:28:49.940Z,102265.69
2022-09-20T12:31:29.146Z,102276.06
2022-09-20T12:34:10.920Z,102274.34
2022-09-20T12:36:52.189Z,102268.53
2022-09-20T12:39:30.040Z,102254.41
2022-09-20T12:42:12.439Z,102259.09
2022-09-20T12:44:51.254Z,102261.41
2022-09-20T12:47:29.016Z,102263.63
2022-09-20T12:50:19.841Z,102265.06
2022-09-20T12:52:59.052Z,102261.22
2022-09-20T12:55:29.884Z,102268.31
2022-09-20T12:58:02.460Z,102275.81
2022-09-20T13:00:38.956Z,102270.09
2022-09-20T13:03:23.841Z,102277.94
2022-09-20T13:06:17.480Z,102275.19
2022-09-20T13:08:52.459Z,102269.00
2022-09-20T13:11:27.452Z,102270.09
2022-09-20T13:14:07.000Z,102268.66
2022-09-20T13:16:39.556Z,102274.19
2022-09-20T13:19:15.235Z,102278.22
2022-09-20T13:21:57.661Z,102277.81
2022-09-20T13:24:26.874Z,102274.72
2022-09-20T13:26:56.271Z,102271.72
2022-09-20T13:29:33.178Z,102273.69
2022-09-20T13:32:31.335Z,102278.47
2022-09-20T13:35:08.600Z,102273.19
2022-09-20T13:37:37.298Z,102285.69
2022-09-20T13:40:06.792Z,102288.94
2022-09-20T13:42:36.899Z,102289.56
2022-09-20T13:45:04.598Z,102287.22
2022-09-20T13:47:32.432Z,102287.88
2022-09-20T13:50:15.250Z,102298.16
2022-09-20T13:52:48.369Z,102303.53
2022-09-20T13:55:30.022Z,102292.25
2022-09-20T13:58:02.944Z,102300.56
2022-09-20T14:00:32.167Z,102306.31
2022-09-20T14:02:59.373Z,102320.84
2022-09-20T14:05:30.031Z,102316.66
2022-09-20T14:07:59.367Z,102319.72
2022-09-20T14:10:42.966Z,102315.84
2022-09-20T14:13:15.592Z,102317.19
2022-09-20T14:15:46.535Z,102307.78
2022-09-20T14:18:18.017Z,102308.63
2022-09-20T14:20:45.920Z,102318.91
2022-09-20T14:23:27.717Z,102320.53
2022-09-20T14:26:16.450Z,102322.13
2022-09-20T14:28:44.403Z,102320.94
2022-09-20T14:31:34.791Z,102329.38
2022-09-20T14:34:04.161Z,102336.19
2022-09-20T14:36:31.319Z,102321.63
2022-09-20T14:39:02.901Z,102332.13
2022-09-20T14:41:36.324Z,102326.78
2022-09-20T14:44:05.638Z,102323.59
2022-09-20T14:46:36.289Z,102330.09
2022-09-20T14:49:25.483Z,102332.44
2022-09-20T14:51:53.591Z,102323.94
2022-09-20T14:54:32.324Z,102319.31
2022-09-20T14:56:59.175Z,102325.16
2022-09-20T14:59:37.494Z,102325.34
2022-09-20T15:02:13.759Z,102318.28
2022-09-20T15:04:51.398Z,102321.44
2022-09-20T15:07:18.235Z,102317.19
2022-09-20T15:09:45.567Z,102314.00
2022-09-20T15:12:16.007Z,102325.16
2022-09-20T15:14:43.214Z,102327.00
2022-09-20T15:17:14.925Z,102318.53
2022-09-20T15:19:41.995Z,102315.66
2022-09-20T15:22:12.445Z,102321.09
2022-09-20T15:24:39.997Z,102324.22
2022-09-20T15:27:07.224Z,102331.63
2022-09-20T15:29:34.195Z,102329.00
2022-09-20T15:32:01.159Z,102330.53
2022-09-20T15:34:28.144Z,102329.47
2022-09-20T15:36:55.126Z,102336.19
2022-09-20T15:39:24.828Z,102329.47
2022-09-20T15:41:53.215Z,102328.88
2022-09-20T15:44:20.726Z,102330.47
2022-09-20T15:46:48.949Z,102329.19
2022-09-20T15:49:15.906Z,102327.41
2022-09-20T15:51:42.836Z,102325.97
2022-09-20T15:54:12.821Z,102333.38
2022-09-20T15:56:42.514Z,102333.22
2022-09-20T15:59:11.690Z,102330.63
2022-09-20T16:01:40.941Z,102334.16
2022-09-20T16:04:08.687Z,102337.13
2022-09-20T16:06:36.647Z,102332.03
2022-09-20T16:09:04.806Z,102331.78
2022-09-20T16:11:32.352Z,102338.56
2022-09-20T16:14:00.799Z,102340.28
2022-09-20T16:16:29.657Z,102344.72
2022-09-20T16:19:15.063Z,102349.81
2022-09-20T16:21:44.451Z,102341.72
2022-09-20T16:24:14.008Z,102350.38
2022-09-20T16:26:41.211Z,102340.94
2022-09-20T16:29:08.413Z,102346.59
2022-09-20T16:31:42.494Z,102358.53
2022-09-20T16:34:19.278Z,102366.47
2022-09-20T16:36:51.282Z,102362.22
2022-09-20T16:39:19.782Z,102369.13
2022-09-20T16:41:48.806Z,102365.28
2022-09-20T16:44:16.278Z,102368.44
2022-09-20T16:46:44.590Z,102372.09
2022-09-20T16:49:13.465Z,102372.84
2022-09-20T16:51:42.915Z,102375.00
2022-09-20T16:54:13.028Z,102380.16
2022-09-20T16:56:43.517Z,102383.13
2022-09-20T16:59:10.877Z,102382.00
2022-09-20T17:01:39.754Z,102380.59
2022-09-20T17:04:08.344Z,102386.09
2022-09-20T17:06:38.280Z,102390.44
2022-09-20T17:09:07.008Z,102392.72
2022-09-20T17:11:37.471Z,102396.09
2022-09-20T17:14:05.531Z,102390.44
2022-09-20T17:16:35.402Z,102393.06
2022-09-20T17:19:11.151Z,102396.03
2022-09-20T17:21:45.165Z,102395.19
2022-09-20T17:24:13.817Z,102393.78
2022-09-20T17:26:44.774Z,102391.88
2022-09-20T17:29:16.958Z,102401.59
2022-09-20T17:31:51.470Z,102400.94
2022-09-20T17:34:21.922Z,102399.09
2022-09-20T17:36:50.551Z,102415.09
2022-09-20T17:39:18.425Z,102406.94
2022-09-20T17:41:47.496Z,102411.19
2022-09-20T17:44:15.782Z,102418.59
2022-09-20T17:46:44.859Z,102418.81
2022-09-20T17:49:18.198Z,102414.69
2022-09-20T17:51:50.842Z,102420.59
2022-09-20T17:54:19.192Z,102424.88
2022-09-20T17:56:51.719Z,102426.81
2022-09-20T17:59:20.367Z,102433.53
2022-09-20T18:01:49.865Z,102430.75
2022-09-20T18:04:17.057Z,102431.34
2022-09-20T18:06:50.827Z,102435.66
2022-09-20T18:09:22.199Z,102444.53
2022-09-20T18:11:52.040Z,102442.13
2022-09-20T18:14:23.186Z,102451.84
2022-09-20T18:16:55.967Z,102452.66
2022-09-20T18:19:23.065Z,102454.50
2022-09-20T18:21:50.670Z,102457.31
2022-09-20T18:24:17.583Z,102449.28
2022-09-20T18:26:44.651Z,102450.19
2022-09-20T18:29:18.012Z,102451.84
2022-09-20T18:31:49.799Z,102454.63
2022-09-20T18:34:24.573Z,102458.66
2022-09-20T18:36:56.783Z,102459.63
2022-09-20T18:39:28.979Z,102463.91
2022-09-20T18:41:56.022Z,102463.25
2022-09-20T18:44:23.683Z,102463.41
2022-09-20T18:46:55.179Z,102466.31
2022-09-20T18:49:22.498Z,102463.84
2022-09-20T18:51:50.003Z,102468.53
2022-09-20T18:54:17.719Z,102470.56
2022-09-20T18:56:46.465Z,102473.88
2022-09-20T18:59:18.319Z,102473.31
2022-09-20T19:01:54.364Z,102478.81
2022-09-20T19:04:43.637Z,102473.69
2022-09-20T19:07:37.748Z,102478.34
2022-09-20T19:10:27.042Z,102474.53
2022-09-20T19:13:31.258Z,102476.47
2022-09-20T19:16:19.348Z,102479.13
2022-09-20T19:19:26.754Z,102481.25
2022-09-20T19:22:02.597Z,102483.72
2022-09-20T19:25:02.343Z,102478.31
2022-09-20T19:27:29.596Z,102484.88
2022-09-20T19:29:56.720Z,102486.47
2022-09-20T19:32:26.240Z,102492.50
2022-09-20T19:35:01.808Z,102492.44
2022-09-20T19:37:52.871Z,102491.06
2022-09-20T19:40:41.078Z,102493.53
2022-09-20T19:43:23.694Z,102496.81
2022-09-20T19:46:10.120Z,102493.75
2022-09-20T19:48:47.127Z,102497.38
2022-09-20T19:51:15.181Z,102504.72
2022-09-20T19:53:42.377Z,102504.94
2022-09-20T19:56:29.589Z,102510.00
2022-09-20T19:58:56.744Z,102516.25
2022-09-20T20:01:25.063Z,102516.25
2022-09-20T20:03:53.595Z,102518.84
2022-09-20T20:06:48.877Z,102514.00
2022-09-20T20:09:15.674Z,102509.16
2022-09-20T20:11:48.541Z,102513.63
2022-09-20T20:14:24.985Z,102519.50
2022-09-20T20:17:25.970Z,102517.69
2022-09-20T20:20:06.354Z,102513.84
2022-09-20T20:22:40.977Z,102519.94
2022-09-20T20:25:26.321Z,102517.44
2022-09-20T20:27:53.167Z,102512.56
2022-09-20T20:30:20.314Z,102516.97
2022-09-20T20:32:47.607Z,102523.50
2022-09-20T20:35:15.055Z,102515.31
2022-09-20T20:37:42.668Z,102518.59
2022-09-20T20:40:14.877Z,102519.03
2022-09-20T20:42:42.838Z,102523.66
2022-09-20T20:45:10.438Z,102530.88
2022-09-20T20:47:37.993Z,102531.16
2022-09-20T20:50:06.019Z,102531.00
2022-09-20T20:52:32.858Z,102540.59
2022-09-20T20:55:00.195Z,102535.16
2022-09-20T20:57:28.056Z,102536.50
2022-09-20T20:59:54.856Z,102538.91
2022-09-20T21:02:21.801Z,102535.69
2022-09-20T21:04:48.657Z,102545.13
2022-09-20T21:07:16.617Z,102546.16
2022-09-20T21:09:43.470Z,102544.63
2022-09-20T21:12:10.430Z,102554.31
2022-09-20T21:14:37.270Z,102548.81
2022-09-20T21:17:04.543Z,102552.44
2022-09-20T21:19:31.315Z,102555.69
2022-09-20T21:21:58.148Z,102554.66
2022-09-20T21:24:24.944Z,102562.38
2022-09-20T21:26:52.687Z,102561.47
2022-09-20T21:29:20.372Z,102562.50
2022-09-20T21:31:47.734Z,102562.59
2022-09-20T21:34:16.103Z,102552.63
2022-09-20T21:36:44.636Z,102558.41
2022-09-20T21:39:12.474Z,102557.41
2022-09-20T21:41:40.184Z,102557.81
2022-09-20T21:44:09.813Z,102558.28
2022-09-20T21:46:40.212Z,102565.47
2022-09-20T21:49:09.527Z,102563.19
2022-09-20T21:51:37.289Z,102570.13
2022-09-20T21:54:05.785Z,102562.28
2022-09-20T21:56:34.840Z,102567.28
2022-09-20T21:59:03.987Z,102567.91
2022-09-20T22:01:36.977Z,102569.53
2022-09-20T22:04:09.735Z,102573.00
2022-09-20T22:06:38.681Z,102568.72
2022-09-20T22:09:09.276Z,102574.03
2022-09-20T22:11:40.861Z,102578.22
2022-09-20T22:14:09.159Z,102571.38
2022-09-20T22:16:40.869Z,102566.97
2022-09-20T22:19:10.763Z,102563.66
2022-09-20T22:21:39.997Z,102567.28
2022-09-20T22:24:08.918Z,102567.75
2022-09-20T22:26:44.874Z,102568.31
2022-09-20T22:29:12.438Z,102577.88
2022-09-20T22:31:45.023Z,102569.72
2022-09-20T22:34:18.344Z,102572.19
2022-09-20T22:36:45.402Z,102561.72
2022-09-20T22:39:13.494Z,102568.56
2022-09-20T22:41:41.544Z,102580.31
2022-09-20T22:44:09.310Z,102570.94
2022-09-20T22:46:37.172Z,102572.63
2022-09-20T22:49:05.965Z,102584.97
2022-09-20T22:51:33.593Z,102572.78
2022-09-20T22:54:04.488Z,102566.69
2022-09-20T22:56:32.006Z,102569.94
2022-09-20T22:59:03.264Z,102573.91
2022-09-20T23:01:35.953Z,102573.44
2022-09-20T23:04:08.606Z,102580.28
2022-09-20T23:06:57.144Z,102569.13
2022-09-20T23:09:26.382Z,102575.59
2022-09-20T23:11:53.438Z,102585.28
2022-09-20T23:14:22.195Z,102576.13
2022-09-20T23:16:49.666Z,102582.84
2022-09-20T23:19:17.628Z,102591.41
2022-09-20T23:21:45.194Z,102586.75
2022-09-20T23:24:14.468Z,102590.38
2022-09-20T23:26:42.503Z,102588.81
2022-09-20T23:29:12.084Z,102578.75
2022-09-20T23:31:45.264Z,102585.59
2022-09-20T23:34:14.421Z,102585.84
2022-09-20T23:36:42.624Z,102578.81
2022-09-20T23:39:11.781Z,102588.97
2022-09-20T23:41:39.545Z,102590.25
2022-09-20T23:44:06.775Z,102594.50
2022-09-20T23:46:34.286Z,102592.22
2022-09-20T23:49:01.932Z,102590.97
2022-09-20T23:51:30.765Z,102595.34
2022-09-20T23:53:57.825Z,102602.34
2022-09-20T23:56:25.077Z,102600.94
2022-09-20T23:58:52.264Z,102596.06
